• Join FlightAware (Why Join?)
  • Login
  • US Flag 
03:27AM EDT


 

Airport Tracker/Info


-or-


 

Live Flight TrackerFlight Track Log ✈ AAL1714 ✈ 11-Apr-2013 ✈ KLAX - KLAS

Flight Track Log - Related Links

Times and Time Zones

All times are in EDT time to prevent confusion due to time zone crossing. See the AAL1714 flight status page for this flight to view local times or setup timezone preferences in your user account.

Time Position Orientation Groundspeed Altitude Reporting Facility
EDT Latitude Longitude Course Direction KTS MPH feet Rate Location/Type
06:45PM 33.9342 -118.4442 59° Northeast 163 188 1,600  Level Los Angeles Center
06:46PM 33.9147 -118.5208 253° West 233 268 3,000 1,980 Climbing Los Angeles Center
06:47PM 33.8736 -118.5942 236° Southwest 274 315 5,800 2,400 Climbing Los Angeles Center
06:48PM 34.1429 -118.0476 59° Northeast  Level FlightAware Approximate
06:48PM 33.8194 -118.5519 147° Southeast 287 330 8,000  Level Los Angeles Center
06:49PM 34.1952 -117.9429 59° Northeast  Level FlightAware Approximate
06:49PM 33.8806 -118.4706 48° Northeast 308 354 11,000  Level Los Angeles Center
06:50PM 34.2556 -117.8554 59° Northeast  Level FlightAware Approximate
06:50PM 33.9575 -118.3931 40° Northeast 351 404 13,600  Level Los Angeles Center
06:51PM 34.0150 -118.2889 56° Northeast 369 425 16,000 2,400 Climbing Los Angeles Center
06:52PM 34.0778 -118.1769 56° Northeast 395 455 18,700 2,460 Climbing Los Angeles Center
06:53PM 34.1444 -118.0611 55° Northeast 413 475 21,200 2,340 Climbing Los Angeles Center
06:54PM 34.2125 -117.9400 56° Northeast 427 491 23,600 2,040 Climbing Los Angeles Center
06:56PM 34.2814 -117.8172 56° Northeast 438 504 25,500 1,620 Climbing Los Angeles Center
06:57PM 34.3672 -117.6619 56° Northeast 458 527 27,000 720 Climbing Los Angeles Center
06:58PM 34.4303 -117.5472 56° Northeast 474 545 27,000  Level Los Angeles Center
06:59PM 34.5189 -117.3872 56° Northeast 480 552 27,000  Level Los Angeles Center
07:00PM 34.5914 -117.2544 56° Northeast 478 550 27,000  Level Los Angeles Center
07:01PM 34.6664 -117.1192 56° Northeast 485 558 27,000  Level Los Angeles Center
07:02PM 34.7397 -116.9839 57° Northeast 483 556 27,000  Level Los Angeles Center
07:03PM 34.8131 -116.8483 57° Northeast 483 556 27,000  Level Los Angeles Center
07:04PM 34.9014 -116.6858 56° Northeast 482 555 27,000 -360 Level Los Angeles Center
07:05PM 34.9764 -116.5550 55° Northeast 478 550 26,300 -960 Descending Los Angeles Center
07:06PM 35.0619 -116.4514 45° Northeast 453 521 25,000 -1,500 Descending Los Angeles Center
07:07PM 35.1422 -116.3497 46° Northeast 427 491 23,200 -1,620 Descending Los Angeles Center
07:08PM 35.2219 -116.2511 45° Northeast 413 475 21,700 -1,560 Descending Los Angeles Center
07:09PM 35.3108 -116.1389 46° Northeast 387 445 20,000 -1,500 Descending Los Angeles Center
07:10PM 35.3842 -116.0461 46° Northeast 380 437 18,600 -1,500 Descending Los Angeles Center
07:11PM 35.4436 -115.9706 46° Northeast 375 432 17,200 -1,620 Descending Los Angeles Center
07:12PM 35.4967 -115.9064 45° Northeast 371 427 16,200 -1,140 Descending Los Angeles Center
07:12PM 35.5211 -115.8744 47° Northeast 357 411 15,800 -1,260 Descending Los Angeles Center
07:13PM 35.5644 -115.8189 46° Northeast 330 380 14,800 -1,680 Descending Los Angeles Center
07:13PM 35.5944 -115.7789 47° Northeast 327 376 14,100 -1,500 Descending Los Angeles Center
07:14PM 35.6258 -115.7439 42° Northeast 312 359 13,300 -1,200 Descending Los Angeles Center
07:14PM 35.6539 -115.7044 49° Northeast 312 359 12,900 -420 Descending Los Angeles Center
07:15PM 35.6886 -115.6631 44° Northeast 299 344 12,900  Level Los Angeles Center
07:15PM 35.7117 -115.6311 48° Northeast 302 348 12,900 60 Level Los Angeles Center
07:16PM 35.7411 -115.5958 44° Northeast 303 349 13,000  Climbing Los Angeles Center
07:16PM 35.7886 -115.5719 22° Northeast 300 345 12,900 -120 Descending Los Angeles Center
07:17PM 35.8181 -115.5736 357° North 293 337 12,900  Level Los Angeles Center
07:17PM 35.8650 -115.5692 North 273 314 12,900  Level Los Angeles Center
07:18PM 35.8906 -115.5686 North 255 293 12,900  Level Los Angeles Center
07:18PM 35.9303 -115.5378 32° Northeast 252 290 12,900 -300 Level Los Angeles Center
07:19PM 35.9456 -115.5139 52° Northeast 268 308 12,600 -780 Descending Los Angeles Center
07:19PM 35.9753 -115.4675 52° Northeast 257 296 12,100 -900 Descending Los Angeles Center
07:20PM 35.9903 -115.4408 55° Northeast 261 300 11,700 -900 Descending Los Angeles Center
07:20PM 36.0172 -115.3967 53° Northeast 257 296 11,200 -900 Descending Los Angeles Center
07:21PM 36.0289 -115.3592 69° East 259 298 10,700 -1,020 Descending Los Angeles Center
07:21PM 36.0256 -115.3114 95° East 267 307 10,200 -1,020 Descending Los Angeles Center
07:22PM 36.0217 -115.2658 96° East 259 298 9,700 -1,020 Descending Los Angeles Center
07:22PM 36.0194 -115.2242 94° East 260 299 9,200 -1,020 Descending Los Angeles Center
07:23PM 36.0161 -115.1800 95° East 253 291 8,700 -1,020 Descending Los Angeles Center
07:23PM 36.0128 -115.1222 94° East 253 291 8,200 -720 Descending Los Angeles Center
07:24PM 36.0103 -115.0942 96° East 247 284 8,000 -600 Descending Los Angeles Center
07:25PM 36.0081 -115.0414 93° East 243 280 7,600 -840 Descending Los Angeles Center
07:25PM 36.0067 -115.0183 94° East 215 247 7,200 -1,200 Descending Los Angeles Center
07:26PM 36.0050 -114.9700 92° East 226 260 6,400 -1,200 Descending Los Angeles Center